createdAt,value
2023-03-02T00:02:21.419Z,-0.30
2023-03-02T00:08:23.513Z,-0.50
2023-03-02T00:14:25.419Z,-0.50
2023-03-02T00:20:27.416Z,-0.60
2023-03-02T00:26:29.149Z,-0.70
2023-03-02T00:32:30.913Z,-0.70
2023-03-02T00:38:35.588Z,-0.70
2023-03-02T00:44:37.358Z,-0.90
2023-03-02T00:50:41.080Z,-0.80
2023-03-02T00:56:43.238Z,-0.80
2023-03-02T01:02:45.073Z,-0.70
2023-03-02T01:08:47.231Z,-0.80
2023-03-02T01:14:50.837Z,-0.80
2023-03-02T01:21:05.406Z,-0.80
2023-03-02T01:27:07.294Z,-0.70
2023-03-02T01:33:09.125Z,-0.50
2023-03-02T01:39:11.468Z,-0.40
2023-03-02T01:45:43.852Z,-0.40
2023-03-02T01:51:47.743Z,-0.50
2023-03-02T01:57:51.321Z,-0.50
2023-03-02T02:03:53.124Z,-0.70
2023-03-02T02:09:56.717Z,-0.70
2023-03-02T02:15:58.818Z,-0.70
2023-03-02T02:22:01.159Z,-0.60
2023-03-02T02:28:09.173Z,-0.60
2023-03-02T02:34:13.996Z,-0.50
2023-03-02T02:40:20.848Z,-0.50
2023-03-02T02:46:23.595Z,-0.50
2023-03-02T02:52:28.127Z,-0.60
2023-03-02T02:58:48.274Z,-0.70
2023-03-02T03:04:50.536Z,-0.80
2023-03-02T03:10:54.641Z,-0.90
2023-03-02T03:16:56.660Z,-0.90
2023-03-02T03:23:00.527Z,-0.90
2023-03-02T03:29:03.122Z,-1.00
2023-03-02T03:35:08.665Z,-1.00
2023-03-02T03:41:12.881Z,-1.00
2023-03-02T03:47:17.724Z,-1.10
2023-03-02T03:53:19.535Z,-1.10
2023-03-02T03:59:25.080Z,-1.00
2023-03-02T04:05:26.960Z,-1.00
2023-03-02T04:11:28.992Z,-1.10
2023-03-02T04:17:31.917Z,-1.10
2023-03-02T04:23:33.679Z,-1.00
2023-03-02T04:29:36.320Z,-1.10
2023-03-02T04:35:38.386Z,-1.10
2023-03-02T04:41:40.419Z,-1.00
2023-03-02T04:47:42.936Z,-1.00
2023-03-02T04:53:44.784Z,-1.10
2023-03-02T04:59:49.620Z,-1.10
2023-03-02T05:05:51.467Z,-1.10
2023-03-02T05:11:55.282Z,-1.20
2023-03-02T05:17:57.658Z,-1.30
2023-03-02T05:23:59.600Z,-1.40
2023-03-02T05:30:01.624Z,-1.40
2023-03-02T05:36:03.815Z,-1.40
2023-03-02T05:42:06.091Z,-1.40
2023-03-02T05:48:08.320Z,-1.50
2023-03-02T05:54:10.285Z,-1.60
2023-03-02T06:00:13.822Z,-1.70
2023-03-02T06:06:17.357Z,-1.70
2023-03-02T06:12:19.908Z,-1.80
2023-03-02T06:18:22.407Z,-1.90
2023-03-02T06:24:24.501Z,-2.00
2023-03-02T06:30:28.011Z,-2.10
2023-03-02T06:36:29.936Z,-2.10
2023-03-02T06:42:32.313Z,-2.10
2023-03-02T06:48:34.471Z,-2.00
2023-03-02T06:54:37.742Z,-2.00
2023-03-02T07:00:41.067Z,-2.00
2023-03-02T07:06:43.511Z,-1.90
2023-03-02T07:12:45.542Z,-1.80
2023-03-02T07:18:47.655Z,-1.70
2023-03-02T07:24:49.558Z,-1.70
2023-03-02T07:30:56.170Z,-1.70
2023-03-02T07:36:58.150Z,-1.60
2023-03-02T07:43:00.340Z,-1.40
2023-03-02T07:49:02.520Z,-1.40
2023-03-02T07:55:04.584Z,-1.30
2023-03-02T08:01:06.583Z,-1.20
2023-03-02T08:07:09.416Z,-1.10
2023-03-02T08:13:11.358Z,-1.10
2023-03-02T08:19:15.607Z,-1.00
2023-03-02T08:25:17.763Z,-0.90
2023-03-02T08:31:19.553Z,-1.10
2023-03-02T08:37:21.408Z,-0.60
2023-03-02T08:43:25.538Z,-0.50
2023-03-02T08:49:28.812Z,0.00
2023-03-02T08:55:31.318Z,0.40
2023-03-02T09:01:35.704Z,0.30
2023-03-02T09:07:38.738Z,0.30
2023-03-02T09:13:41.552Z,0.30
2023-03-02T09:19:44.678Z,0.40
2023-03-02T09:25:50.390Z,0.70
2023-03-02T09:31:52.653Z,1.10
2023-03-02T09:37:55.779Z,1.30
2023-03-02T09:44:19.550Z,1.30
2023-03-02T09:50:50.850Z,1.50
2023-03-02T09:56:59.159Z,1.70
2023-03-02T10:03:16.978Z,2.40
2023-03-02T10:09:19.821Z,2.60
2023-03-02T10:15:24.792Z,1.90
2023-03-02T10:21:49.509Z,1.60
2023-03-02T10:27:56.265Z,1.60
2023-03-02T10:34:03.612Z,1.80
2023-03-02T10:40:29.958Z,1.80
2023-03-02T10:46:46.681Z,2.00
2023-03-02T10:52:59.995Z,2.30
2023-03-02T10:59:28.608Z,2.20
2023-03-02T11:05:36.430Z,2.10
2023-03-02T11:11:44.669Z,2.20
2023-03-02T11:18:06.876Z,2.50
2023-03-02T11:24:19.218Z,3.00
2023-03-02T11:30:26.428Z,3.00
2023-03-02T11:36:45.449Z,3.70
2023-03-02T11:42:54.004Z,3.80
2023-03-02T11:49:11.680Z,3.90
2023-03-02T11:55:24.648Z,4.40
2023-03-02T12:01:29.409Z,4.50
2023-03-02T12:07:32.500Z,4.40
2023-03-02T12:13:42.720Z,4.50
2023-03-02T12:19:46.730Z,4.70
2023-03-02T12:25:53.861Z,4.70
2023-03-02T12:32:10.625Z,4.90
2023-03-02T12:38:32.834Z,5.30
2023-03-02T12:44:53.053Z,5.60
2023-03-02T12:51:04.541Z,5.60
2023-03-02T12:57:21.115Z,5.10
2023-03-02T13:03:23.592Z,4.90
2023-03-02T13:09:26.082Z,4.90
2023-03-02T13:15:28.330Z,4.60
2023-03-02T13:21:38.386Z,4.80
2023-03-02T13:27:40.469Z,4.90
2023-03-02T13:33:47.917Z,4.80
2023-03-02T13:39:58.442Z,5.10
2023-03-02T13:46:07.456Z,5.10
2023-03-02T13:52:56.628Z,5.10
2023-03-02T13:59:03.808Z,4.70
2023-03-02T14:05:07.175Z,4.80
2023-03-02T14:11:18.166Z,4.60
2023-03-02T14:17:24.277Z,4.50
2023-03-02T14:23:32.153Z,4.70
2023-03-02T14:29:38.264Z,4.50
2023-03-02T14:35:40.370Z,4.40
2023-03-02T14:41:52.951Z,4.50
2023-03-02T14:47:56.325Z,4.50
2023-03-02T14:54:01.133Z,4.40
2023-03-02T15:00:05.439Z,4.60
2023-03-02T15:06:28.176Z,4.50
2023-03-02T15:12:30.322Z,4.20
2023-03-02T15:18:32.164Z,4.20
2023-03-02T15:24:35.147Z,4.20
2023-03-02T15:30:38.027Z,3.70
2023-03-02T15:36:40.116Z,3.90
2023-03-02T15:42:42.293Z,4.00
2023-03-02T15:48:44.438Z,3.90
2023-03-02T15:54:46.571Z,3.70
2023-03-02T16:00:49.739Z,3.40
2023-03-02T16:06:51.979Z,3.30
2023-03-02T16:19:18.901Z,2.60
2023-03-02T16:25:21.730Z,2.30
2023-03-02T16:31:27.572Z,2.20
2023-03-02T16:37:29.558Z,2.20
2023-03-02T16:43:32.368Z,2.20
2023-03-02T16:49:35.539Z,2.00
2023-03-02T16:55:37.774Z,1.90
2023-03-02T17:01:40.140Z,1.80
2023-03-02T17:07:42.767Z,1.70
2023-03-02T17:13:44.941Z,1.70
2023-03-02T17:19:46.865Z,1.70
2023-03-02T17:25:48.978Z,1.60
2023-03-02T17:31:50.951Z,1.50
2023-03-02T17:37:52.942Z,1.50
2023-03-02T17:43:55.352Z,1.50
2023-03-02T17:49:58.621Z,1.60
2023-03-02T17:56:00.807Z,1.40
2023-03-02T18:02:02.976Z,1.30
2023-03-02T18:08:05.112Z,1.30
2023-03-02T18:14:07.355Z,1.20
2023-03-02T18:20:10.513Z,1.10
2023-03-02T18:26:14.076Z,1.20
2023-03-02T18:32:16.177Z,1.10
2023-03-02T18:38:18.219Z,1.00
2023-03-02T18:44:20.376Z,0.90
2023-03-02T18:50:23.004Z,1.00
2023-03-02T18:56:25.068Z,0.90
2023-03-02T19:02:28.622Z,0.90
2023-03-02T19:08:31.209Z,1.00
2023-03-02T19:14:33.261Z,1.00
2023-03-02T19:20:36.334Z,0.90
2023-03-02T19:26:38.443Z,0.90
2023-03-02T19:32:44.602Z,1.00
2023-03-02T19:38:46.584Z,1.00
2023-03-02T19:44:48.577Z,1.00
2023-03-02T19:50:54.969Z,1.00
2023-03-02T19:56:56.970Z,1.00
2023-03-02T20:03:00.026Z,1.00
2023-03-02T20:09:05.774Z,1.00
2023-03-02T20:15:08.219Z,1.00
2023-03-02T20:21:10.172Z,1.00
2023-03-02T20:27:13.163Z,1.00
2023-03-02T20:33:16.289Z,1.00
2023-03-02T20:39:31.585Z,1.00
2023-03-02T20:45:33.933Z,1.00
2023-03-02T20:51:39.740Z,1.00
2023-03-02T20:57:41.973Z,0.90
2023-03-02T21:03:47.629Z,1.00
2023-03-02T21:09:49.813Z,0.90
2023-03-02T21:15:52.140Z,0.90
2023-03-02T21:21:55.355Z,1.00
2023-03-02T21:27:58.100Z,1.00
2023-03-02T21:34:00.870Z,1.00
2023-03-02T21:40:03.150Z,1.10
2023-03-02T21:46:05.579Z,1.10
2023-03-02T21:52:08.115Z,1.20
2023-03-02T21:58:10.728Z,1.20
2023-03-02T22:04:12.728Z,1.30
2023-03-02T22:10:40.931Z,1.20
2023-03-02T22:16:47.485Z,1.30
2023-03-02T22:22:53.810Z,1.30
2023-03-02T22:29:03.387Z,1.40
2023-03-02T22:35:25.713Z,1.40
2023-03-02T22:41:27.748Z,1.40
2023-03-02T22:47:29.652Z,1.40
2023-03-02T22:53:35.484Z,1.40
2023-03-02T22:59:38.138Z,1.40
2023-03-02T23:05:40.217Z,1.50
2023-03-02T23:11:43.201Z,1.40
2023-03-02T23:17:47.215Z,1.40
2023-03-02T23:23:50.296Z,1.40
2023-03-02T23:29:53.528Z,1.50
2023-03-02T23:35:55.608Z,1.40
2023-03-02T23:41:57.525Z,1.50
2023-03-02T23:47:59.502Z,1.50
2023-03-02T23:54:04.179Z,1.40
